Time;durP1;ratioP1;P1;durP2;ratioP2;P2;SDS_P1;SDS_P2;PMS_P1;PMS_P2;Temp;Humidity;BMP_temperature;BMP_pressure;BME280_temperature;BME280_humidity;BME280_pressure;Samples;Min_cycle;Max_cycle;Signal;HPM_P1;HPM_P2
2023/09/22 00:01:42;;;;;;;7.60;0.93;;;15.50;99.90;;;;;;4249326;27;20047;-54
2023/09/22 00:03:44;;;;;;;5.30;1.13;;;15.50;99.90;;;;;;4248907;27;20047;-54
2023/09/22 00:05:47;;;;;;;5.82;1.17;;;15.50;99.90;;;;;;4248995;27;20043;-54
2023/09/22 00:07:49;;;;;;;2.15;0.90;;;15.50;99.90;;;;;;4249070;27;20358;-53
2023/09/22 00:09:53;;;;;;;3.70;1.40;;;15.30;99.90;;;;;;4249074;27;20055;-55
2023/09/22 00:11:57;;;;;;;3.42;1.00;;;15.40;99.90;;;;;;4248996;27;20096;-54
2023/09/22 00:13:59;;;;;;;2.67;0.93;;;15.50;99.90;;;;;;4249337;27;20067;-53
2023/09/22 00:16:02;;;;;;;2.85;1.10;;;15.40;99.90;;;;;;4249002;27;20096;-53
2023/09/22 00:18:04;;;;;;;1.98;0.93;;;15.40;99.90;;;;;;4248418;27;20096;-53
2023/09/22 00:20:08;;;;;;;3.15;1.00;;;15.40;99.90;;;;;;4230723;28;20047;-53
2023/09/22 00:22:10;;;;;;;3.60;1.00;;;15.40;99.90;;;;;;4249280;27;20051;-54
2023/09/22 00:24:14;;;;;;;2.70;1.10;;;15.40;99.90;;;;;;4248740;27;20129;-54
2023/09/22 00:26:17;;;;;;;2.55;0.70;;;15.30;99.90;;;;;;4248923;27;20484;-54
2023/09/22 00:28:20;;;;;;;2.00;0.80;;;15.30;99.90;;;;;;4248910;27;20051;-57
2023/09/22 00:30:23;;;;;;;4.68;1.30;;;15.30;99.90;;;;;;4248961;27;20047;-54
2023/09/22 00:32:25;;;;;;;2.65;0.90;;;15.40;99.90;;;;;;4248802;27;20450;-54
2023/09/22 00:34:28;;;;;;;4.00;1.27;;;15.40;99.90;;;;;;4248453;27;20443;-54
2023/09/22 00:36:30;;;;;;;3.47;1.55;;;15.40;99.90;;;;;;4248705;27;20079;-54
2023/09/22 00:38:32;;;;;;;3.05;1.02;;;15.40;99.90;;;;;;4249779;27;20100;-53
2023/09/22 00:40:34;;;;;;;4.40;0.90;;;15.30;99.90;;;;;;4249861;27;20043;-58
2023/09/22 00:42:38;;;;;;;3.25;1.35;;;15.30;99.90;;;;;;4248551;27;20167;-54
2023/09/22 00:44:40;;;;;;;4.57;1.20;;;15.30;99.90;;;;;;4230382;28;20085;-54
2023/09/22 00:46:42;;;;;;;3.72;1.20;;;15.30;99.90;;;;;;4248633;27;20074;-55
2023/09/22 00:48:45;;;;;;;2.88;1.08;;;15.30;99.90;;;;;;4247906;27;20047;-53
2023/09/22 00:50:48;;;;;;;2.35;1.20;;;15.40;99.90;;;;;;4248422;27;20050;-54
2023/09/22 00:52:50;;;;;;;5.03;1.27;;;15.40;99.90;;;;;;4248573;27;20542;-54
2023/09/22 00:54:56;;;;;;;5.35;1.42;;;15.40;99.90;;;;;;4248302;27;20054;-54
2023/09/22 00:56:59;;;;;;;6.70;1.52;;;15.40;99.90;;;;;;4247992;27;20043;-54
2023/09/22 00:59:05;;;;;;;3.70;1.08;;;15.40;99.90;;;;;;4248502;27;20213;-54
2023/09/22 01:01:08;;;;;;;5.80;1.38;;;15.50;99.90;;;;;;4248165;27;20051;-54
2023/09/22 01:03:10;;;;;;;5.75;1.45;;;15.50;99.90;;;;;;4248035;27;20055;-54
2023/09/22 01:05:13;;;;;;;3.53;1.17;;;15.50;99.90;;;;;;4248612;27;20090;-54
2023/09/22 01:07:15;;;;;;;6.43;0.95;;;15.50;99.90;;;;;;4249453;27;20134;-54
2023/09/22 01:09:17;;;;;;;3.72;1.00;;;15.50;99.90;;;;;;4248005;27;20043;-54
2023/09/22 01:11:20;;;;;;;2.47;1.08;;;15.40;99.90;;;;;;4248175;27;20047;-55
2023/09/22 01:13:22;;;;;;;4.82;1.10;;;15.40;99.90;;;;;;4248136;27;20049;-55
2023/09/22 01:15:25;;;;;;;3.97;1.08;;;15.40;99.90;;;;;;4248020;27;20091;-54
2023/09/22 01:17:27;;;;;;;3.03;1.20;;;15.40;99.90;;;;;;4247510;27;20515;-53
2023/09/22 01:19:30;;;;;;;4.30;1.08;;;15.40;99.90;;;;;;4229985;28;20054;-54
2023/09/22 01:21:34;;;;;;;6.70;0.88;;;15.30;99.90;;;;;;4248234;27;20454;-53
2023/09/22 01:23:36;;;;;;;7.07;1.42;;;15.30;99.90;;;;;;4248275;27;20050;-54
2023/09/22 01:25:39;;;;;;;7.05;1.10;;;15.20;99.90;;;;;;4248164;27;20047;-54
2023/09/22 01:27:41;;;;;;;5.10;1.02;;;15.20;99.90;;;;;;4248226;27;20420;-54
2023/09/22 01:29:43;;;;;;;3.08;1.08;;;15.20;99.90;;;;;;4247827;27;20452;-54
2023/09/22 01:31:45;;;;;;;3.92;1.42;;;15.10;99.90;;;;;;4247560;27;20450;-54
2023/09/22 01:33:48;;;;;;;4.43;1.17;;;15.10;99.90;;;;;;4247885;27;20492;-54
2023/09/22 01:35:50;;;;;;;5.63;1.20;;;15.10;99.90;;;;;;4247727;27;20493;-54
2023/09/22 01:37:57;;;;;;;2.72;1.10;;;15.10;99.90;;;;;;4247739;27;20054;-54
2023/09/22 01:40:00;;;;;;;5.70;1.25;;;15.00;99.90;;;;;;4247602;27;20054;-54
2023/09/22 01:42:03;;;;;;;4.80;1.30;;;15.00;99.90;;;;;;4247404;27;20047;-55
2023/09/22 01:44:05;;;;;;;4.78;1.27;;;15.10;99.90;;;;;;4247647;27;20043;-54
2023/09/22 01:46:07;;;;;;;3.33;1.20;;;15.10;99.90;;;;;;4247416;27;20120;-54
2023/09/22 01:48:10;;;;;;;5.63;1.50;;;15.10;99.90;;;;;;4247581;27;20071;-57
2023/09/22 01:50:12;;;;;;;3.25;1.02;;;15.10;99.90;;;;;;4247516;27;20104;-55
2023/09/22 01:52:14;;;;;;;3.15;1.10;;;15.00;99.90;;;;;;4247616;27;20050;-54
2023/09/22 01:54:17;;;;;;;4.63;1.23;;;15.00;99.90;;;;;;4247471;27;20494;-55
2023/09/22 01:56:21;;;;;;;4.97;1.20;;;15.10;99.90;;;;;;4247403;27;20043;-54
2023/09/22 01:58:23;;;;;;;4.15;1.23;;;15.00;99.90;;;;;;4247540;27;20043;-54
2023/09/22 02:00:26;;;;;;;4.63;1.23;;;15.10;99.90;;;;;;4247308;27;20043;-54
2023/09/22 02:02:28;;;;;;;4.38;1.15;;;15.10;99.90;;;;;;4247480;27;20108;-54
2023/09/22 02:04:30;;;;;;;5.55;1.38;;;15.10;99.90;;;;;;4247236;27;20065;-55
2023/09/22 02:06:33;;;;;;;4.68;1.00;;;15.00;99.90;;;;;;4246461;27;20084;-54
2023/09/22 02:08:35;;;;;;;7.32;1.40;;;15.10;99.90;;;;;;4247359;28;20072;-53
2023/09/22 02:10:38;;;;;;;4.70;1.10;;;15.00;99.90;;;;;;4247150;28;20039;-54
2023/09/22 02:12:41;;;;;;;7.35;1.48;;;15.00;99.90;;;;;;4251937;27;20130;-54
2023/09/22 02:14:44;;;;;;;6.57;1.35;;;15.00;99.90;;;;;;4252885;27;20100;-55
2023/09/22 02:16:46;;;;;;;10.82;1.25;;;15.00;99.90;;;;;;4252878;27;20047;-53
2023/09/22 02:18:48;;;;;;;7.55;1.80;;;15.00;99.90;;;;;;4235657;28;20464;-58
2023/09/22 02:20:51;;;;;;;4.65;1.27;;;15.00;99.90;;;;;;4254835;27;20461;-55
2023/09/22 02:22:55;;;;;;;8.45;1.58;;;15.00;99.90;;;;;;4253077;27;20057;-54
2023/09/22 02:24:57;;;;;;;4.95;1.35;;;15.00;99.90;;;;;;4253306;27;20385;-54
2023/09/22 02:27:02;;;;;;;6.20;1.15;;;15.00;99.90;;;;;;4253167;27;20127;-54
2023/09/22 02:29:04;;;;;;;5.50;1.27;;;15.10;99.90;;;;;;4252565;27;20050;-55
2023/09/22 02:31:06;;;;;;;4.35;1.42;;;15.10;99.90;;;;;;4252868;27;20074;-55
2023/09/22 02:33:09;;;;;;;6.05;1.40;;;15.00;99.90;;;;;;4253473;27;20124;-54
2023/09/22 02:35:12;;;;;;;4.95;1.35;;;15.00;99.90;;;;;;4253071;27;20130;-54
2023/09/22 02:37:14;;;;;;;6.85;1.33;;;15.00;99.90;;;;;;4235201;28;20442;-53
2023/09/22 02:39:16;;;;;;;2.83;1.33;;;15.00;99.90;;;;;;4253443;27;20413;-54
2023/09/22 02:41:19;;;;;;;5.40;1.30;;;15.00;99.90;;;;;;4252678;27;20043;-53
2023/09/22 02:43:23;;;;;;;5.70;1.50;;;15.00;99.90;;;;;;4252662;27;20108;-54
2023/09/22 02:45:25;;;;;;;6.88;1.27;;;15.00;99.90;;;;;;4252620;27;20043;-54
2023/09/22 02:47:27;;;;;;;8.27;1.27;;;14.90;99.90;;;;;;4252762;27;20126;-54
2023/09/22 02:49:30;;;;;;;6.65;1.58;;;14.90;99.90;;;;;;4252410;27;20066;-54
2023/09/22 02:51:32;;;;;;;3.20;1.17;;;14.90;99.90;;;;;;4252675;27;20054;-55
2023/09/22 02:53:34;;;;;;;4.47;1.52;;;14.90;99.90;;;;;;4253258;27;20039;-55
2023/09/22 02:55:39;;;;;;;7.82;1.70;;;14.90;99.90;;;;;;4252826;27;20043;-55
2023/09/22 02:57:45;;;;;;;4.43;1.30;;;14.90;99.90;;;;;;4252236;27;20043;-54
2023/09/22 02:59:55;;;;;;;3.88;1.05;;;15.00;99.90;;;;;;4252842;27;20557;-54
2023/09/22 03:01:57;;;;;;;3.47;1.10;;;15.00;99.90;;;;;;4252580;27;20071;-54
2023/09/22 03:03:59;;;;;;;9.73;1.45;;;15.00;99.90;;;;;;4252651;27;20074;-54
2023/09/22 03:06:02;;;;;;;7.00;1.60;;;15.00;99.90;;;;;;4252615;27;20053;-54
2023/09/22 03:08:04;;;;;;;6.45;1.98;;;14.90;99.90;;;;;;4252511;27;20057;-54
2023/09/22 03:10:07;;;;;;;4.35;1.52;;;14.90;99.90;;;;;;4252865;27;20119;-54
2023/09/22 03:12:09;;;;;;;4.13;1.30;;;14.90;99.90;;;;;;4252094;27;20046;-55
2023/09/22 03:14:12;;;;;;;7.38;1.77;;;14.90;99.90;;;;;;4252732;27;20070;-54
2023/09/22 03:16:15;;;;;;;5.72;1.58;;;14.90;99.90;;;;;;4252606;27;20038;-54
2023/09/22 03:18:19;;;;;;;6.35;1.42;;;14.80;99.90;;;;;;4252652;27;20039;-54
2023/09/22 03:20:22;;;;;;;5.85;1.40;;;14.70;99.90;;;;;;4252675;27;20088;-54
2023/09/22 03:22:24;;;;;;;4.57;1.42;;;14.70;99.90;;;;;;4252485;27;20038;-54
2023/09/22 03:24:26;;;;;;;5.70;1.35;;;14.70;99.90;;;;;;4248716;27;20061;-54
2023/09/22 03:26:29;;;;;;;6.00;1.88;;;14.60;99.90;;;;;;4249611;27;20051;-54
2023/09/22 03:28:31;;;;;;;4.82;1.25;;;14.60;99.90;;;;;;4250003;27;20122;-55
2023/09/22 03:30:33;;;;;;;7.78;1.73;;;14.60;99.90;;;;;;4249485;27;20049;-55
2023/09/22 03:32:39;;;;;;;8.15;1.50;;;14.50;99.90;;;;;;4249771;27;20051;-54
2023/09/22 03:34:41;;;;;;;10.95;2.17;;;14.50;99.90;;;;;;4249864;27;20156;-54
2023/09/22 03:36:43;;;;;;;5.55;1.30;;;14.50;99.90;;;;;;4249820;27;20465;-54
2023/09/22 03:38:48;;;;;;;7.45;2.05;;;14.50;99.90;;;;;;4249413;27;20350;-54
2023/09/22 03:40:52;;;;;;;5.75;1.38;;;14.60;99.90;;;;;;4249472;27;20043;-55
2023/09/22 03:42:54;;;;;;;6.50;1.63;;;14.60;99.90;;;;;;4231135;28;20055;-54
2023/09/22 03:44:56;;;;;;;5.40;1.35;;;14.60;99.90;;;;;;4249694;27;20477;-54
2023/09/22 03:46:59;;;;;;;5.70;1.20;;;14.60;99.90;;;;;;4249564;27;20092;-54
2023/09/22 03:49:05;;;;;;;6.13;1.25;;;14.60;99.90;;;;;;4249258;27;20263;-54
2023/09/22 03:51:07;;;;;;;6.65;1.50;;;14.60;99.90;;;;;;4249348;27;20481;-54
2023/09/22 03:53:09;;;;;;;6.40;1.80;;;14.60;99.90;;;;;;4249381;27;20051;-54
2023/09/22 03:55:14;;;;;;;5.85;1.40;;;14.60;99.90;;;;;;4249458;27;20051;-54
2023/09/22 03:57:16;;;;;;;9.45;1.48;;;14.70;99.90;;;;;;4249095;27;20438;-54
2023/09/22 03:59:18;;;;;;;5.63;1.50;;;14.60;99.90;;;;;;4249380;27;20488;-54
2023/09/22 04:01:20;;;;;;;7.72;1.55;;;14.70;99.90;;;;;;4249237;27;20057;-55
2023/09/22 04:03:24;;;;;;;5.38;1.38;;;14.60;99.90;;;;;;4249429;27;20042;-54
2023/09/22 04:05:28;;;;;;;5.35;1.52;;;14.70;99.90;;;;;;4249443;27;20488;-54
2023/09/22 04:07:31;;;;;;;6.38;1.50;;;14.60;99.90;;;;;;4249112;27;20047;-54
2023/09/22 04:09:33;;;;;;;5.45;1.65;;;14.70;99.90;;;;;;4249259;27;20048;-53
2023/09/22 04:11:35;;;;;;;5.78;1.38;;;14.70;99.90;;;;;;4248725;27;20225;-53
2023/09/22 04:13:37;;;;;;;6.57;1.60;;;14.70;99.90;;;;;;4248973;27;20130;-54
2023/09/22 04:15:39;;;;;;;6.20;1.40;;;14.80;99.90;;;;;;4249101;27;20362;-54
2023/09/22 04:17:42;;;;;;;6.72;2.20;;;14.80;99.90;;;;;;4248732;27;20043;-54
2023/09/22 04:19:45;;;;;;;7.03;1.90;;;14.90;99.90;;;;;;4248997;27;20202;-55
2023/09/22 04:21:49;;;;;;;8.43;1.83;;;14.80;99.90;;;;;;4248954;27;20473;-54
2023/09/22 04:23:57;;;;;;;5.55;1.98;;;14.80;99.90;;;;;;4248755;27;20047;-54
2023/09/22 04:26:02;;;;;;;9.60;2.55;;;14.70;99.90;;;;;;4248590;27;20148;-54
2023/09/22 04:28:17;;;;;;;5.57;2.10;;;14.70;99.90;;;;;;4248732;27;20386;-54
2023/09/22 04:30:20;;;;;;;4.47;1.80;;;14.60;99.90;;;;;;4248740;27;20047;-54
2023/09/22 04:32:23;;;;;;;8.02;1.98;;;14.70;99.90;;;;;;4248626;27;20117;-54
2023/09/22 04:34:25;;;;;;;6.78;2.17;;;14.70;99.90;;;;;;4248345;27;20043;-55
2023/09/22 04:36:27;;;;;;;12.75;2.25;;;14.80;99.90;;;;;;4248849;27;20107;-55
2023/09/22 04:38:31;;;;;;;8.55;2.20;;;14.80;99.90;;;;;;4248761;27;20050;-54
2023/09/22 04:40:38;;;;;;;9.93;2.40;;;14.80;99.90;;;;;;4248406;27;20071;-54
2023/09/22 04:42:41;;;;;;;8.88;2.50;;;14.80;99.90;;;;;;4248464;27;20408;-54
2023/09/22 04:44:44;;;;;;;10.52;2.80;;;14.80;99.90;;;;;;4248695;27;20047;-54
2023/09/22 04:46:46;;;;;;;8.18;2.05;;;14.70;99.90;;;;;;4248310;27;20047;-54
2023/09/22 04:48:48;;;;;;;9.70;2.38;;;14.80;99.90;;;;;;4248515;27;20055;-53
2023/09/22 04:50:57;;;;;;;8.38;2.28;;;14.80;99.90;;;;;;4248567;27;20467;-54
2023/09/22 04:52:59;;;;;;;12.50;3.05;;;14.80;99.90;;;;;;4249786;27;20063;-55
2023/09/22 04:55:03;;;;;;;9.57;2.67;;;14.80;99.90;;;;;;4249612;27;20053;-54
2023/09/22 04:57:05;;;;;;;7.28;1.88;;;14.80;99.90;;;;;;4249555;27;20126;-54
2023/09/22 04:59:07;;;;;;;8.23;2.60;;;14.70;99.90;;;;;;4249045;27;20450;-54
2023/09/22 05:01:09;;;;;;;5.85;2.38;;;14.80;99.90;;;;;;4249197;27;20454;-55
2023/09/22 05:03:12;;;;;;;7.47;2.47;;;14.80;99.90;;;;;;4248479;27;20084;-54
2023/09/22 05:05:18;;;;;;;11.10;2.38;;;14.70;99.90;;;;;;4248249;27;20047;-54
2023/09/22 05:07:21;;;;;;;10.05;3.25;;;14.70;99.90;;;;;;4248133;27;20099;-54
2023/09/22 05:09:23;;;;;;;7.40;2.35;;;14.70;99.90;;;;;;4248125;27;20047;-54
2023/09/22 05:11:26;;;;;;;11.55;2.90;;;14.70;99.90;;;;;;4248126;27;20097;-54
2023/09/22 05:13:28;;;;;;;10.75;2.92;;;14.70;99.90;;;;;;4248146;27;20046;-54
2023/09/22 05:15:31;;;;;;;7.78;2.33;;;14.70;99.90;;;;;;4230026;28;20048;-54
2023/09/22 05:17:34;;;;;;;9.18;2.83;;;14.70;99.90;;;;;;4247854;27;20047;-54
2023/09/22 05:19:37;;;;;;;9.20;3.00;;;14.70;99.90;;;;;;4247976;27;20043;-54
2023/09/22 05:21:39;;;;;;;9.10;2.35;;;14.70;99.90;;;;;;4248099;27;20047;-54
2023/09/22 05:23:42;;;;;;;5.90;1.75;;;14.60;99.90;;;;;;4247504;27;20039;-54
2023/09/22 05:25:44;;;;;;;5.53;2.40;;;14.70;99.90;;;;;;4247919;27;20053;-55
2023/09/22 05:27:48;;;;;;;8.20;2.45;;;14.70;99.90;;;;;;4248378;27;20146;-53
2023/09/22 05:29:51;;;;;;;6.07;2.10;;;14.70;99.90;;;;;;4247857;27;20047;-54
2023/09/22 05:31:53;;;;;;;6.28;2.10;;;14.70;99.90;;;;;;4247769;27;20491;-53
2023/09/22 05:33:56;;;;;;;7.57;2.28;;;14.70;99.90;;;;;;4247828;27;20047;-55
2023/09/22 05:35:58;;;;;;;9.82;2.33;;;14.60;99.90;;;;;;4247470;27;20047;-54
2023/09/22 05:38:01;;;;;;;6.05;2.05;;;14.60;99.90;;;;;;4247388;27;20405;-54
2023/09/22 05:40:12;;;;;;;8.13;2.17;;;14.70;99.90;;;;;;4247661;27;20251;-54
2023/09/22 05:42:15;;;;;;;9.85;2.83;;;14.70;99.90;;;;;;4247700;27;20386;-54
2023/09/22 05:44:18;;;;;;;10.02;2.20;;;14.70;99.90;;;;;;4247737;27;20062;-54
2023/09/22 05:46:20;;;;;;;7.28;1.95;;;14.70;99.90;;;;;;4246797;27;20051;-54
2023/09/22 05:48:23;;;;;;;5.68;2.00;;;14.80;99.90;;;;;;4247747;27;20047;-54
2023/09/22 05:50:25;;;;;;;10.70;2.33;;;14.70;99.90;;;;;;4247171;27;20119;-54
2023/09/22 05:52:28;;;;;;;7.50;2.40;;;14.80;99.90;;;;;;4247183;27;20051;-54
2023/09/22 05:54:30;;;;;;;6.18;1.75;;;14.80;99.90;;;;;;4247524;27;20047;-54
2023/09/22 05:56:33;;;;;;;9.52;2.30;;;14.80;99.90;;;;;;4247381;27;20043;-54
2023/09/22 05:58:36;;;;;;;7.10;1.90;;;14.80;99.90;;;;;;4247415;27;20100;-53
2023/09/22 06:00:40;;;;;;;9.75;2.22;;;14.80;99.90;;;;;;4247354;27;20053;-54
2023/09/22 06:02:46;;;;;;;12.48;2.10;;;14.80;99.90;;;;;;4247470;27;20459;-54
2023/09/22 06:04:48;;;;;;;13.70;2.67;;;14.80;99.90;;;;;;4247320;27;20122;-54
2023/09/22 06:06:51;;;;;;;11.52;2.20;;;14.80;99.90;;;;;;4247220;27;20075;-55
2023/09/22 06:08:53;;;;;;;10.55;2.83;;;14.90;99.90;;;;;;4247330;27;20096;-54
2023/09/22 06:10:59;;;;;;;11.63;2.38;;;14.80;99.90;;;;;;4229123;28;20073;-54
2023/09/22 06:13:02;;;;;;;9.93;2.17;;;14.90;99.90;;;;;;4247206;28;20460;-53
2023/09/22 06:15:07;;;;;;;12.45;2.45;;;14.80;99.90;;;;;;4247220;28;20117;-54
2023/09/22 06:17:10;;;;;;;;;;;14.80;99.90;;;;;;4247698;28;20060;-54
2023/09/22 06:19:12;;;;;;;12.32;2.42;;;14.90;99.90;;;;;;4247370;28;19923;-54
2023/09/22 06:21:14;;;;;;;7.55;1.88;;;14.80;99.90;;;;;;4246996;28;20047;-54
2023/09/22 06:23:17;;;;;;;6.28;2.03;;;14.80;99.90;;;;;;4247675;28;20473;-53
2023/09/22 06:25:20;;;;;;;8.38;2.10;;;14.80;99.90;;;;;;4247128;28;20047;-54
2023/09/22 06:27:22;;;;;;;8.07;2.13;;;14.90;99.90;;;;;;4246991;28;20133;-54
2023/09/22 06:29:24;;;;;;;10.73;2.20;;;14.90;99.90;;;;;;4247375;28;20047;-54
2023/09/22 06:31:26;;;;;;;11.18;2.95;;;14.80;99.90;;;;;;4247243;28;20475;-54
2023/09/22 06:33:30;;;;;;;10.32;2.25;;;14.80;99.90;;;;;;4247319;28;20051;-53
2023/09/22 06:35:33;;;;;;;7.50;2.08;;;14.90;99.90;;;;;;4247136;28;20416;-55
2023/09/22 06:37:36;;;;;;;7.55;2.38;;;14.90;99.90;;;;;;4247047;28;20081;-54
2023/09/22 06:39:38;;;;;;;9.00;2.20;;;14.90;99.90;;;;;;4247228;28;20183;-54
2023/09/22 06:41:41;;;;;;;8.48;2.13;;;14.90;99.90;;;;;;4229366;28;20048;-54
2023/09/22 06:43:44;;;;;;;5.85;2.00;;;14.90;99.90;;;;;;4250541;28;20395;-55
2023/09/22 06:46:02;;;;;;;7.85;2.22;;;14.80;99.90;;;;;;4233536;28;20115;-54
2023/09/22 06:48:05;;;;;;;5.68;1.70;;;14.80;99.90;;;;;;4229875;28;20120;-57
2023/09/22 06:50:11;;;;;;;4.53;1.40;;;14.80;99.90;;;;;;4246928;28;20055;-54
2023/09/22 06:52:14;;;;;;;8.35;1.83;;;14.80;99.90;;;;;;4247076;28;20043;-53
2023/09/22 06:54:16;;;;;;;4.95;1.70;;;14.70;99.90;;;;;;4246836;28;20066;-54
2023/09/22 06:56:18;;;;;;;4.65;1.60;;;14.80;99.90;;;;;;4247054;28;20461;-54
2023/09/22 06:58:22;;;;;;;5.97;1.77;;;14.70;99.90;;;;;;4248825;27;20050;-53
2023/09/22 07:00:29;;;;;;;6.28;1.52;;;14.80;99.90;;;;;;4250495;27;20534;-55
2023/09/22 07:02:31;;;;;;;4.28;1.40;;;14.90;99.90;;;;;;4250335;27;20055;-54
2023/09/22 07:04:35;;;;;;;8.40;1.92;;;14.80;99.90;;;;;;4249920;27;20043;-54
2023/09/22 07:06:40;;;;;;;5.47;1.80;;;14.90;99.90;;;;;;4250093;27;20485;-54
2023/09/22 07:08:44;;;;;;;7.22;1.77;;;14.80;99.90;;;;;;4250399;27;20092;-55
2023/09/22 07:10:47;;;;;;;;;;;14.80;99.90;;;;;;4250789;27;20135;-53
2023/09/22 07:12:49;;;;;;;4.10;1.40;;;14.80;99.90;;;;;;4249821;27;20376;-54
2023/09/22 07:14:52;;;;;;;7.32;2.05;;;14.80;99.90;;;;;;4250334;27;20401;-54
2023/09/22 07:16:54;;;;;;;7.30;2.00;;;14.80;99.90;;;;;;4250103;27;20434;-54
2023/09/22 07:18:56;;;;;;;9.90;2.38;;;14.80;99.90;;;;;;4250013;27;20120;-54
2023/09/22 07:20:58;;;;;;;7.30;2.28;;;14.80;99.90;;;;;;4249707;27;20039;-55
2023/09/22 07:23:04;;;;;;;6.10;1.75;;;14.80;99.90;;;;;;4250012;27;20144;-54
2023/09/22 07:25:07;;;;;;;5.28;1.88;;;14.80;99.90;;;;;;4250544;27;20043;-53
2023/09/22 07:27:09;;;;;;;4.07;1.40;;;14.80;99.90;;;;;;4249818;27;20088;-54
2023/09/22 07:29:11;;;;;;;5.78;1.45;;;14.80;99.90;;;;;;4249822;27;20088;-54
2023/09/22 07:31:15;;;;;;;5.90;1.45;;;14.80;99.90;;;;;;4250126;27;20051;-55
2023/09/22 07:33:17;;;;;;;5.32;1.73;;;14.90;99.90;;;;;;4250633;27;20115;-54
2023/09/22 07:35:20;;;;;;;6.30;1.83;;;14.90;99.90;;;;;;4251343;27;20120;-61
2023/09/22 07:37:22;;;;;;;7.32;1.80;;;14.90;99.90;;;;;;4250747;27;20043;-54
2023/09/22 07:39:25;;;;;;;6.55;2.20;;;14.90;99.90;;;;;;4251507;27;20092;-54
2023/09/22 07:41:28;;;;;;;6.22;2.17;;;14.90;99.90;;;;;;4249665;27;20073;-53
2023/09/22 07:43:30;;;;;;;9.32;2.47;;;14.90;99.90;;;;;;4249554;27;20051;-54
2023/09/22 07:45:37;;;;;;;11.20;3.10;;;15.00;99.90;;;;;;4249607;27;20043;-54
2023/09/22 07:47:39;;;;;;;6.07;1.77;;;15.00;99.90;;;;;;4249012;27;20050;-54
2023/09/22 07:49:42;;;;;;;11.77;2.92;;;15.00;99.90;;;;;;4249261;27;20046;-54
2023/09/22 07:51:44;;;;;;;5.72;2.00;;;15.00;99.90;;;;;;4231487;28;20044;-54
2023/09/22 07:53:47;;;;;;;10.20;2.80;;;15.00;99.90;;;;;;4249235;27;20092;-54
2023/09/22 07:55:52;;;;;;;8.05;2.05;;;15.00;99.90;;;;;;4249234;27;20047;-54
2023/09/22 07:57:54;;;;;;;8.73;2.13;;;15.10;99.90;;;;;;4249552;27;20096;-53
2023/09/22 07:59:56;;;;;;;14.07;3.03;;;15.00;99.90;;;;;;4249416;27;20049;-53
2023/09/22 08:02:06;;;;;;;9.00;2.08;;;14.90;99.90;;;;;;4249594;27;20451;-54
2023/09/22 08:04:08;;;;;;;14.20;2.63;;;14.90;99.90;;;;;;4249326;27;20092;-54
2023/09/22 08:06:11;;;;;;;9.02;2.33;;;15.00;99.90;;;;;;4249477;27;20063;-54
2023/09/22 08:08:17;;;;;;;14.00;2.47;;;14.90;99.90;;;;;;4249287;27;20047;-54
2023/09/22 08:10:24;;;;;;;9.68;2.03;;;14.90;99.90;;;;;;4231116;27;20458;-54
2023/09/22 08:12:28;;;;;;;6.20;1.90;;;14.90;99.90;;;;;;4249306;27;20118;-54
2023/09/22 08:14:31;;;;;;;10.20;2.05;;;14.90;99.90;;;;;;4249207;27;20043;-54
2023/09/22 08:16:53;;;;;;;6.00;1.98;;;14.90;99.90;;;;;;4248621;27;20047;-55
2023/09/22 08:18:55;;;;;;;6.85;1.88;;;14.90;99.90;;;;;;4248975;27;20104;-54
2023/09/22 08:20:58;;;;;;;6.63;1.92;;;14.90;99.90;;;;;;4249212;27;20054;-54
2023/09/22 08:23:01;;;;;;;5.88;2.00;;;15.00;99.90;;;;;;4249651;27;20114;-54
2023/09/22 08:25:06;;;;;;;5.47;2.10;;;14.90;99.90;;;;;;4248969;27;20404;-54
2023/09/22 08:27:08;;;;;;;6.90;1.83;;;14.90;99.90;;;;;;4248929;27;20046;-54
2023/09/22 08:29:12;;;;;;;6.68;1.75;;;15.00;99.90;;;;;;4249130;27;20069;-54
2023/09/22 08:31:14;;;;;;;7.18;1.90;;;15.00;99.90;;;;;;4248465;27;20039;-55
2023/09/22 08:33:17;;;;;;;4.00;1.40;;;15.00;99.90;;;;;;4213720;28;20044;-54
2023/09/22 08:35:19;;;;;;;5.53;1.70;;;14.90;99.90;;;;;;4248555;27;20054;-55
2023/09/22 08:37:21;;;;;;;5.80;1.63;;;14.80;99.90;;;;;;4248524;27;20047;-52
2023/09/22 08:39:25;;;;;;;9.05;1.70;;;14.80;99.90;;;;;;4248855;27;20537;-53
2023/09/22 08:41:31;;;;;;;5.40;1.42;;;14.70;99.90;;;;;;4248616;27;20122;-54
2023/09/22 08:43:35;;;;;;;6.38;1.30;;;14.80;99.90;;;;;;4248462;27;20047;-54
2023/09/22 08:45:39;;;;;;;3.72;0.80;;;14.80;99.90;;;;;;4248213;27;20043;-54
2023/09/22 08:47:45;;;;;;;2.22;0.95;;;14.80;99.90;;;;;;4230530;28;20109;-53
2023/09/22 08:49:47;;;;;;;4.60;1.33;;;14.70;99.90;;;;;;4248349;27;20134;-54
2023/09/22 08:51:50;;;;;;;6.10;1.95;;;14.80;99.90;;;;;;4248640;27;20047;-54
2023/09/22 08:53:53;;;;;;;4.97;1.35;;;14.70;99.90;;;;;;4248504;27;20043;-55
2023/09/22 08:55:56;;;;;;;4.15;1.85;;;14.80;99.90;;;;;;4248453;27;20108;-55
2023/09/22 08:57:59;;;;;;;8.88;1.80;;;14.70;99.90;;;;;;4248358;27;20457;-54
2023/09/22 09:00:10;;;;;;;4.75;1.35;;;14.70;99.90;;;;;;4248098;27;20050;-55
2023/09/22 09:02:14;;;;;;;3.45;1.02;;;14.60;99.90;;;;;;4248491;27;20057;-54
2023/09/22 09:04:33;;;;;;;3.42;1.23;;;14.70;99.90;;;;;;4248330;27;20043;-55
2023/09/22 09:06:44;;;;;;;2.22;0.98;;;14.80;99.90;;;;;;4248007;27;20458;-55
2023/09/22 09:09:09;;;;;;;4.55;1.10;;;14.70;99.90;;;;;;4248437;27;20476;-55
2023/09/22 09:11:11;;;;;;;3.58;1.50;;;14.90;99.90;;;;;;4248318;27;20115;-55
2023/09/22 09:13:14;;;;;;;3.45;1.20;;;14.90;99.90;;;;;;4248290;27;20126;-54
2023/09/22 09:15:17;;;;;;;7.18;1.60;;;15.10;99.90;;;;;;4247790;27;20100;-54
2023/09/22 09:17:21;;;;;;;2.10;1.10;;;15.10;99.90;;;;;;4248149;27;20049;-53
2023/09/22 09:19:26;;;;;;;5.07;1.58;;;15.30;99.90;;;;;;4247957;27;20054;-53
2023/09/22 09:21:29;;;;;;;2.60;1.13;;;15.30;99.90;;;;;;4247043;27;20137;-54
2023/09/22 09:23:32;;;;;;;3.75;1.20;;;15.30;99.90;;;;;;4248148;27;20449;-54
2023/09/22 09:25:40;;;;;;;5.32;1.52;;;15.50;99.90;;;;;;4247883;27;20122;-54
2023/09/22 09:27:43;;;;;;;2.65;1.20;;;15.60;99.90;;;;;;4247907;27;20121;-54
2023/09/22 09:29:46;;;;;;;3.75;1.20;;;15.60;99.90;;;;;;4229301;28;20048;-54
2023/09/22 09:31:51;;;;;;;2.10;1.23;;;15.60;99.90;;;;;;4247869;27;20393;-54
2023/09/22 09:33:54;;;;;;;;;;;15.70;99.90;;;;;;4248128;27;20047;-53
2023/09/22 09:35:57;;;;;;;3.53;0.90;;;15.70;99.90;;;;;;4247827;27;20347;-54
2023/09/22 09:38:03;;;;;;;2.38;0.73;;;15.70;99.90;;;;;;4229578;28;20044;-54
2023/09/22 09:40:10;;;;;;;4.22;0.85;;;15.80;99.90;;;;;;4247548;27;20066;-54
2023/09/22 09:42:16;;;;;;;2.83;0.75;;;15.90;99.90;;;;;;4247538;27;20043;-54
2023/09/22 09:44:20;;;;;;;1.75;0.77;;;16.00;99.90;;;;;;4247212;27;20047;-54
2023/09/22 09:46:23;;;;;;;1.75;0.70;;;15.90;99.90;;;;;;4247619;27;20092;-53
2023/09/22 09:48:26;;;;;;;2.83;0.77;;;15.90;99.90;;;;;;4247629;27;20062;-55
2023/09/22 09:50:32;;;;;;;1.83;0.68;;;15.80;99.90;;;;;;4247437;27;20070;-51
2023/09/22 09:52:40;;;;;;;2.20;0.80;;;15.80;99.90;;;;;;4249786;27;20047;-54
2023/09/22 09:54:49;;;;;;;1.90;0.90;;;15.80;99.90;;;;;;4250312;27;20078;-54
2023/09/22 09:56:52;;;;;;;3.50;0.60;;;15.90;99.90;;;;;;4248838;27;20044;-51
2023/09/22 09:58:55;;;;;;;1.80;0.93;;;15.90;99.90;;;;;;4248070;27;20083;-51
2023/09/22 10:00:59;;;;;;;1.85;0.90;;;16.00;99.90;;;;;;4248025;27;20092;-53
2023/09/22 10:03:03;;;;;;;1.33;0.82;;;16.00;99.90;;;;;;4247870;27;20043;-55
2023/09/22 10:05:07;;;;;;;1.70;0.50;;;16.00;99.90;;;;;;4247786;27;20126;-53
2023/09/22 10:07:11;;;;;;;1.17;0.70;;;16.10;99.90;;;;;;4247536;27;20174;-54
2023/09/22 10:09:15;;;;;;;2.55;0.60;;;16.20;99.90;;;;;;4247531;27;20549;-52
2023/09/22 10:11:17;;;;;;;1.10;0.70;;;16.30;99.90;;;;;;4247354;27;20047;-51
2023/09/22 10:13:20;;;;;;;1.50;0.73;;;16.40;99.90;;;;;;4247158;28;20092;-50
2023/09/22 10:16:08;;;;;;;2.20;1.65;;;16.40;99.90;;;;;;4247332;28;20108;-51
2023/09/22 10:18:16;;;;;;;3.55;1.65;;;16.40;99.90;;;;;;4178380;28;20048;-51
2023/09/22 10:20:42;;;;;;;1.17;0.68;;;16.30;99.90;;;;;;4178229;28;20053;-52
2023/09/22 10:23:14;;;;;;;1.90;0.70;;;16.40;99.90;;;;;;4178117;28;20564;-51
2023/09/22 10:25:23;;;;;;;3.08;1.42;;;16.40;99.90;;;;;;4178361;28;20072;-51
2023/09/22 10:27:54;;;;;;;3.17;0.88;;;16.40;99.90;;;;;;4177821;28;20471;-52
2023/09/22 10:30:07;;;;;;;1.92;0.77;;;16.50;99.90;;;;;;4178166;28;20499;-52
2023/09/22 10:32:26;;;;;;;1.63;0.68;;;16.40;99.90;;;;;;4178165;28;20164;-54
2023/09/22 10:34:51;;;;;;;2.33;0.90;;;16.60;99.90;;;;;;4181579;28;20443;-53
2023/09/22 10:36:53;;;;;;;1.55;0.80;;;16.50;99.90;;;;;;4176897;28;20569;-51
2023/09/22 10:38:58;;;;;;;2.20;0.75;;;16.60;99.90;;;;;;4181403;28;20041;-52
2023/09/22 10:41:04;;;;;;;2.05;0.90;;;16.50;99.90;;;;;;4181410;28;20127;-52
2023/09/22 10:43:06;;;;;;;2.10;0.60;;;16.40;99.90;;;;;;4181056;28;20124;-51
2023/09/22 10:45:10;;;;;;;1.58;0.80;;;16.30;99.90;;;;;;4181372;28;20063;-52